sensor_id;sensor_type;location;lat;lon;timestamp;P1;durP1;ratioP1;P2;durP2;ratioP2
22490;SDS011;11412;50.802;4.350;2024-01-10T00:01:19;9.18;;;4.97;;
22490;SDS011;11412;50.802;4.350;2024-01-10T00:03:46;7.80;;;5.28;;
22490;SDS011;11412;50.802;4.350;2024-01-10T00:06:11;10.15;;;6.00;;
22490;SDS011;11412;50.802;4.350;2024-01-10T00:08:37;9.48;;;5.32;;
22490;SDS011;11412;50.802;4.350;2024-01-10T00:11:02;8.45;;;5.70;;
22490;SDS011;11412;50.802;4.350;2024-01-10T00:13:29;9.48;;;5.68;;
22490;SDS011;11412;50.802;4.350;2024-01-10T00:15:56;8.70;;;5.55;;
22490;SDS011;11412;50.802;4.350;2024-01-10T00:18:24;9.02;;;5.53;;
22490;SDS011;11412;50.802;4.350;2024-01-10T00:20:50;7.35;;;4.95;;
22490;SDS011;11412;50.802;4.350;2024-01-10T00:23:20;8.73;;;6.35;;
22490;SDS011;11412;50.802;4.350;2024-01-10T00:25:46;8.52;;;5.53;;
22490;SDS011;11412;50.802;4.350;2024-01-10T00:28:13;8.82;;;5.80;;
22490;SDS011;11412;50.802;4.350;2024-01-10T00:30:39;8.90;;;5.63;;
22490;SDS011;11412;50.802;4.350;2024-01-10T00:33:05;9.25;;;6.18;;
22490;SDS011;11412;50.802;4.350;2024-01-10T00:35:30;14.25;;;5.65;;
22490;SDS011;11412;50.802;4.350;2024-01-10T00:37:56;9.48;;;5.88;;
22490;SDS011;11412;50.802;4.350;2024-01-10T00:40:22;9.07;;;5.68;;
22490;SDS011;11412;50.802;4.350;2024-01-10T00:42:48;9.95;;;5.80;;
22490;SDS011;11412;50.802;4.350;2024-01-10T00:45:14;8.98;;;6.05;;
22490;SDS011;11412;50.802;4.350;2024-01-10T00:47:40;9.05;;;6.03;;
22490;SDS011;11412;50.802;4.350;2024-01-10T00:50:06;9.65;;;6.05;;
22490;SDS011;11412;50.802;4.350;2024-01-10T00:52:32;9.65;;;5.93;;
22490;SDS011;11412;50.802;4.350;2024-01-10T00:54:58;8.27;;;5.78;;
22490;SDS011;11412;50.802;4.350;2024-01-10T00:57:24;9.95;;;6.50;;
22490;SDS011;11412;50.802;4.350;2024-01-10T00:59:49;8.95;;;6.05;;
22490;SDS011;11412;50.802;4.350;2024-01-10T01:02:15;8.63;;;5.78;;
22490;SDS011;11412;50.802;4.350;2024-01-10T01:04:40;8.60;;;5.78;;
22490;SDS011;11412;50.802;4.350;2024-01-10T01:07:06;8.48;;;5.80;;
22490;SDS011;11412;50.802;4.350;2024-01-10T01:09:33;11.00;;;5.70;;
22490;SDS011;11412;50.802;4.350;2024-01-10T01:11:59;9.27;;;5.65;;
22490;SDS011;11412;50.802;4.350;2024-01-10T01:14:25;9.55;;;6.00;;
22490;SDS011;11412;50.802;4.350;2024-01-10T01:16:51;10.70;;;5.50;;
22490;SDS011;11412;50.802;4.350;2024-01-10T01:19:16;10.45;;;6.63;;
22490;SDS011;11412;50.802;4.350;2024-01-10T01:21:42;8.98;;;5.88;;
22490;SDS011;11412;50.802;4.350;2024-01-10T01:24:08;9.32;;;6.00;;
22490;SDS011;11412;50.802;4.350;2024-01-10T01:26:34;9.00;;;6.32;;
22490;SDS011;11412;50.802;4.350;2024-01-10T01:28:59;10.07;;;6.18;;
22490;SDS011;11412;50.802;4.350;2024-01-10T01:31:25;9.07;;;6.07;;
22490;SDS011;11412;50.802;4.350;2024-01-10T01:33:51;9.70;;;6.22;;
22490;SDS011;11412;50.802;4.350;2024-01-10T01:36:17;9.75;;;6.25;;
22490;SDS011;11412;50.802;4.350;2024-01-10T01:38:43;10.50;;;6.35;;
22490;SDS011;11412;50.802;4.350;2024-01-10T01:41:09;14.73;;;7.25;;
22490;SDS011;11412;50.802;4.350;2024-01-10T01:43:34;9.10;;;6.03;;
22490;SDS011;11412;50.802;4.350;2024-01-10T01:46:00;10.45;;;6.40;;
22490;SDS011;11412;50.802;4.350;2024-01-10T01:48:27;9.45;;;6.00;;
22490;SDS011;11412;50.802;4.350;2024-01-10T01:51:06;8.50;;;5.78;;
22490;SDS011;11412;50.802;4.350;2024-01-10T01:53:36;9.82;;;6.40;;
22490;SDS011;11412;50.802;4.350;2024-01-10T01:56:04;11.55;;;6.40;;
22490;SDS011;11412;50.802;4.350;2024-01-10T01:58:31;10.25;;;6.43;;
22490;SDS011;11412;50.802;4.350;2024-01-10T02:00:58;9.02;;;6.50;;
22490;SDS011;11412;50.802;4.350;2024-01-10T02:03:26;8.23;;;6.07;;
22490;SDS011;11412;50.802;4.350;2024-01-10T02:05:52;10.45;;;6.60;;
22490;SDS011;11412;50.802;4.350;2024-01-10T02:08:18;12.23;;;7.25;;
22490;SDS011;11412;50.802;4.350;2024-01-10T02:10:44;10.65;;;6.20;;
22490;SDS011;11412;50.802;4.350;2024-01-10T02:13:10;9.73;;;6.68;;
22490;SDS011;11412;50.802;4.350;2024-01-10T02:15:36;12.98;;;6.32;;
22490;SDS011;11412;50.802;4.350;2024-01-10T02:18:03;9.88;;;6.35;;
22490;SDS011;11412;50.802;4.350;2024-01-10T02:20:30;10.43;;;7.20;;
22490;SDS011;11412;50.802;4.350;2024-01-10T02:22:56;9.65;;;6.93;;
22490;SDS011;11412;50.802;4.350;2024-01-10T02:25:22;12.07;;;7.03;;
22490;SDS011;11412;50.802;4.350;2024-01-10T02:27:48;10.63;;;7.28;;
22490;SDS011;11412;50.802;4.350;2024-01-10T02:30:13;10.52;;;6.70;;
22490;SDS011;11412;50.802;4.350;2024-01-10T02:32:39;11.73;;;6.50;;
22490;SDS011;11412;50.802;4.350;2024-01-10T02:35:05;8.63;;;6.50;;
22490;SDS011;11412;50.802;4.350;2024-01-10T02:37:31;9.02;;;6.53;;
22490;SDS011;11412;50.802;4.350;2024-01-10T02:39:57;8.65;;;6.18;;
22490;SDS011;11412;50.802;4.350;2024-01-10T02:42:23;10.27;;;6.80;;
22490;SDS011;11412;50.802;4.350;2024-01-10T02:44:49;9.70;;;6.45;;
22490;SDS011;11412;50.802;4.350;2024-01-10T02:47:14;10.05;;;6.82;;
22490;SDS011;11412;50.802;4.350;2024-01-10T02:49:40;12.77;;;6.45;;
22490;SDS011;11412;50.802;4.350;2024-01-10T02:52:06;11.60;;;7.30;;
22490;SDS011;11412;50.802;4.350;2024-01-10T02:54:31;9.25;;;6.10;;
22490;SDS011;11412;50.802;4.350;2024-01-10T02:56:57;11.23;;;6.57;;
22490;SDS011;11412;50.802;4.350;2024-01-10T02:59:23;9.07;;;6.15;;
22490;SDS011;11412;50.802;4.350;2024-01-10T03:01:48;9.73;;;6.60;;
22490;SDS011;11412;50.802;4.350;2024-01-10T03:04:14;11.20;;;6.82;;
22490;SDS011;11412;50.802;4.350;2024-01-10T03:06:40;9.68;;;6.70;;
22490;SDS011;11412;50.802;4.350;2024-01-10T03:09:06;9.82;;;6.43;;
22490;SDS011;11412;50.802;4.350;2024-01-10T03:11:32;11.20;;;6.38;;
22490;SDS011;11412;50.802;4.350;2024-01-10T03:14:01;8.30;;;6.07;;
22490;SDS011;11412;50.802;4.350;2024-01-10T03:16:29;9.73;;;6.72;;
22490;SDS011;11412;50.802;4.350;2024-01-10T03:18:55;9.60;;;6.45;;
22490;SDS011;11412;50.802;4.350;2024-01-10T03:21:21;13.32;;;6.93;;
22490;SDS011;11412;50.802;4.350;2024-01-10T03:23:54;10.10;;;6.45;;
22490;SDS011;11412;50.802;4.350;2024-01-10T03:26:21;12.85;;;7.10;;
22490;SDS011;11412;50.802;4.350;2024-01-10T03:28:47;10.38;;;6.82;;
22490;SDS011;11412;50.802;4.350;2024-01-10T03:31:13;9.40;;;6.35;;
22490;SDS011;11412;50.802;4.350;2024-01-10T03:33:39;10.93;;;6.50;;
22490;SDS011;11412;50.802;4.350;2024-01-10T03:36:05;9.63;;;6.57;;
22490;SDS011;11412;50.802;4.350;2024-01-10T03:38:32;9.05;;;6.50;;
22490;SDS011;11412;50.802;4.350;2024-01-10T03:40:57;12.02;;;6.72;;
22490;SDS011;11412;50.802;4.350;2024-01-10T03:43:23;11.02;;;6.95;;
22490;SDS011;11412;50.802;4.350;2024-01-10T03:45:48;9.48;;;6.68;;
22490;SDS011;11412;50.802;4.350;2024-01-10T03:48:14;10.77;;;6.80;;
22490;SDS011;11412;50.802;4.350;2024-01-10T03:50:40;9.73;;;6.70;;
22490;SDS011;11412;50.802;4.350;2024-01-10T03:53:05;9.82;;;6.60;;
22490;SDS011;11412;50.802;4.350;2024-01-10T03:55:31;9.25;;;6.53;;
22490;SDS011;11412;50.802;4.350;2024-01-10T03:57:57;12.85;;;6.75;;
22490;SDS011;11412;50.802;4.350;2024-01-10T04:00:23;10.35;;;6.63;;
22490;SDS011;11412;50.802;4.350;2024-01-10T04:02:50;9.82;;;6.57;;
22490;SDS011;11412;50.802;4.350;2024-01-10T04:05:15;10.45;;;6.60;;
22490;SDS011;11412;50.802;4.350;2024-01-10T04:07:41;11.00;;;6.47;;
22490;SDS011;11412;50.802;4.350;2024-01-10T04:10:10;10.27;;;6.90;;
22490;SDS011;11412;50.802;4.350;2024-01-10T04:12:45;10.10;;;6.22;;
22490;SDS011;11412;50.802;4.350;2024-01-10T04:15:11;9.57;;;6.70;;
22490;SDS011;11412;50.802;4.350;2024-01-10T04:17:37;10.63;;;6.65;;
22490;SDS011;11412;50.802;4.350;2024-01-10T04:20:03;9.30;;;6.43;;
22490;SDS011;11412;50.802;4.350;2024-01-10T04:22:30;9.07;;;6.38;;
22490;SDS011;11412;50.802;4.350;2024-01-10T04:24:59;11.63;;;6.65;;
22490;SDS011;11412;50.802;4.350;2024-01-10T04:27:26;8.00;;;6.22;;
22490;SDS011;11412;50.802;4.350;2024-01-10T04:29:52;9.57;;;7.00;;
22490;SDS011;11412;50.802;4.350;2024-01-10T04:32:19;12.73;;;7.03;;
22490;SDS011;11412;50.802;4.350;2024-01-10T04:34:44;12.00;;;7.05;;
22490;SDS011;11412;50.802;4.350;2024-01-10T04:37:10;12.52;;;7.07;;
22490;SDS011;11412;50.802;4.350;2024-01-10T04:39:36;10.30;;;7.10;;
22490;SDS011;11412;50.802;4.350;2024-01-10T04:42:05;9.10;;;6.28;;
22490;SDS011;11412;50.802;4.350;2024-01-10T04:44:32;10.23;;;6.50;;
22490;SDS011;11412;50.802;4.350;2024-01-10T04:46:57;13.15;;;6.75;;
22490;SDS011;11412;50.802;4.350;2024-01-10T04:49:23;9.77;;;6.72;;
22490;SDS011;11412;50.802;4.350;2024-01-10T04:51:49;8.98;;;6.60;;
22490;SDS011;11412;50.802;4.350;2024-01-10T04:54:16;9.68;;;6.63;;
22490;SDS011;11412;50.802;4.350;2024-01-10T04:56:41;10.60;;;6.53;;
22490;SDS011;11412;50.802;4.350;2024-01-10T04:59:07;11.48;;;6.72;;
22490;SDS011;11412;50.802;4.350;2024-01-10T05:01:33;10.32;;;6.80;;
22490;SDS011;11412;50.802;4.350;2024-01-10T05:03:59;11.98;;;6.97;;
22490;SDS011;11412;50.802;4.350;2024-01-10T05:06:25;11.10;;;7.07;;
22490;SDS011;11412;50.802;4.350;2024-01-10T05:08:51;11.40;;;7.25;;
22490;SDS011;11412;50.802;4.350;2024-01-10T05:11:17;9.30;;;6.60;;
22490;SDS011;11412;50.802;4.350;2024-01-10T05:13:42;10.93;;;6.97;;
22490;SDS011;11412;50.802;4.350;2024-01-10T05:16:08;12.30;;;6.97;;
22490;SDS011;11412;50.802;4.350;2024-01-10T05:18:34;10.93;;;6.45;;
22490;SDS011;11412;50.802;4.350;2024-01-10T05:21:00;8.73;;;6.50;;
22490;SDS011;11412;50.802;4.350;2024-01-10T05:23:26;13.77;;;7.28;;
22490;SDS011;11412;50.802;4.350;2024-01-10T05:25:52;10.40;;;6.85;;
22490;SDS011;11412;50.802;4.350;2024-01-10T05:28:18;10.15;;;6.70;;
22490;SDS011;11412;50.802;4.350;2024-01-10T05:30:44;11.02;;;6.95;;
22490;SDS011;11412;50.802;4.350;2024-01-10T05:33:10;10.38;;;7.22;;
22490;SDS011;11412;50.802;4.350;2024-01-10T05:35:36;9.30;;;7.07;;
22490;SDS011;11412;50.802;4.350;2024-01-10T05:38:03;11.63;;;7.40;;
22490;SDS011;11412;50.802;4.350;2024-01-10T05:40:29;12.68;;;6.97;;
22490;SDS011;11412;50.802;4.350;2024-01-10T05:42:57;10.25;;;7.20;;
22490;SDS011;11412;50.802;4.350;2024-01-10T05:45:26;10.63;;;6.75;;
22490;SDS011;11412;50.802;4.350;2024-01-10T05:47:53;9.50;;;6.93;;
22490;SDS011;11412;50.802;4.350;2024-01-10T05:50:19;11.70;;;7.25;;
22490;SDS011;11412;50.802;4.350;2024-01-10T05:52:45;10.27;;;6.80;;
22490;SDS011;11412;50.802;4.350;2024-01-10T05:55:11;10.48;;;7.60;;
22490;SDS011;11412;50.802;4.350;2024-01-10T05:57:36;11.35;;;6.95;;
22490;SDS011;11412;50.802;4.350;2024-01-10T06:00:03;9.38;;;7.15;;
22490;SDS011;11412;50.802;4.350;2024-01-10T06:02:30;11.90;;;7.57;;
22490;SDS011;11412;50.802;4.350;2024-01-10T06:04:55;14.30;;;7.65;;
22490;SDS011;11412;50.802;4.350;2024-01-10T06:07:21;12.07;;;7.82;;
22490;SDS011;11412;50.802;4.350;2024-01-10T06:09:47;11.07;;;7.72;;
22490;SDS011;11412;50.802;4.350;2024-01-10T06:12:13;10.95;;;6.95;;
22490;SDS011;11412;50.802;4.350;2024-01-10T06:14:38;10.98;;;6.90;;
22490;SDS011;11412;50.802;4.350;2024-01-10T06:17:04;10.57;;;7.45;;
22490;SDS011;11412;50.802;4.350;2024-01-10T06:19:31;12.07;;;7.22;;
22490;SDS011;11412;50.802;4.350;2024-01-10T06:21:57;11.88;;;7.65;;
22490;SDS011;11412;50.802;4.350;2024-01-10T06:24:23;10.63;;;6.80;;
22490;SDS011;11412;50.802;4.350;2024-01-10T06:26:49;10.27;;;7.22;;
22490;SDS011;11412;50.802;4.350;2024-01-10T06:29:15;11.32;;;7.35;;
22490;SDS011;11412;50.802;4.350;2024-01-10T06:31:41;10.65;;;7.13;;
22490;SDS011;11412;50.802;4.350;2024-01-10T06:34:07;11.13;;;7.53;;
22490;SDS011;11412;50.802;4.350;2024-01-10T06:36:33;11.52;;;8.05;;
22490;SDS011;11412;50.802;4.350;2024-01-10T06:38:59;11.05;;;6.88;;
22490;SDS011;11412;50.802;4.350;2024-01-10T06:41:26;11.32;;;7.13;;
22490;SDS011;11412;50.802;4.350;2024-01-10T06:43:52;11.95;;;6.97;;
22490;SDS011;11412;50.802;4.350;2024-01-10T06:46:18;15.55;;;7.45;;
22490;SDS011;11412;50.802;4.350;2024-01-10T06:48:44;11.25;;;7.25;;
22490;SDS011;11412;50.802;4.350;2024-01-10T06:51:10;11.18;;;6.72;;
22490;SDS011;11412;50.802;4.350;2024-01-10T06:53:39;10.05;;;6.32;;
22490;SDS011;11412;50.802;4.350;2024-01-10T06:56:05;12.32;;;7.60;;
22490;SDS011;11412;50.802;4.350;2024-01-10T06:58:31;10.13;;;7.53;;
22490;SDS011;11412;50.802;4.350;2024-01-10T07:00:58;13.02;;;7.20;;
22490;SDS011;11412;50.802;4.350;2024-01-10T07:03:25;13.88;;;7.07;;
22490;SDS011;11412;50.802;4.350;2024-01-10T07:05:51;11.32;;;6.80;;
22490;SDS011;11412;50.802;4.350;2024-01-10T07:08:17;11.73;;;7.45;;
22490;SDS011;11412;50.802;4.350;2024-01-10T07:10:43;12.55;;;7.13;;
22490;SDS011;11412;50.802;4.350;2024-01-10T07:13:09;10.32;;;6.97;;
22490;SDS011;11412;50.802;4.350;2024-01-10T07:15:35;9.65;;;6.68;;
22490;SDS011;11412;50.802;4.350;2024-01-10T07:18:01;10.43;;;7.10;;
22490;SDS011;11412;50.802;4.350;2024-01-10T07:20:27;11.95;;;7.30;;
22490;SDS011;11412;50.802;4.350;2024-01-10T07:22:52;8.32;;;6.03;;
22490;SDS011;11412;50.802;4.350;2024-01-10T07:25:19;11.27;;;7.13;;
22490;SDS011;11412;50.802;4.350;2024-01-10T07:27:47;13.60;;;7.28;;
22490;SDS011;11412;50.802;4.350;2024-01-10T07:30:13;11.23;;;7.38;;
22490;SDS011;11412;50.802;4.350;2024-01-10T07:32:42;11.98;;;6.95;;
22490;SDS011;11412;50.802;4.350;2024-01-10T07:35:09;11.55;;;7.07;;
22490;SDS011;11412;50.802;4.350;2024-01-10T07:37:38;11.07;;;7.78;;
22490;SDS011;11412;50.802;4.350;2024-01-10T07:40:05;13.15;;;7.80;;
22490;SDS011;11412;50.802;4.350;2024-01-10T07:42:32;12.50;;;7.85;;
22490;SDS011;11412;50.802;4.350;2024-01-10T07:44:58;12.52;;;8.18;;
22490;SDS011;11412;50.802;4.350;2024-01-10T07:47:24;11.80;;;7.57;;
22490;SDS011;11412;50.802;4.350;2024-01-10T07:49:50;12.95;;;7.82;;
22490;SDS011;11412;50.802;4.350;2024-01-10T07:52:16;12.38;;;7.78;;
22490;SDS011;11412;50.802;4.350;2024-01-10T07:54:42;14.95;;;7.80;;
22490;SDS011;11412;50.802;4.350;2024-01-10T07:57:08;15.70;;;8.20;;
22490;SDS011;11412;50.802;4.350;2024-01-10T07:59:33;17.75;;;8.88;;
22490;SDS011;11412;50.802;4.350;2024-01-10T08:02:00;15.60;;;8.10;;
22490;SDS011;11412;50.802;4.350;2024-01-10T08:04:28;21.20;;;9.75;;
22490;SDS011;11412;50.802;4.350;2024-01-10T08:06:54;33.63;;;12.23;;
22490;SDS011;11412;50.802;4.350;2024-01-10T08:09:21;22.25;;;11.20;;
22490;SDS011;11412;50.802;4.350;2024-01-10T08:11:47;19.70;;;10.00;;
22490;SDS011;11412;50.802;4.350;2024-01-10T08:14:15;16.73;;;9.40;;
22490;SDS011;11412;50.802;4.350;2024-01-10T08:16:41;16.02;;;9.32;;
22490;SDS011;11412;50.802;4.350;2024-01-10T08:19:08;14.77;;;8.02;;
22490;SDS011;11412;50.802;4.350;2024-01-10T08:21:34;11.82;;;7.28;;
22490;SDS011;11412;50.802;4.350;2024-01-10T08:24:03;16.27;;;6.93;;
22490;SDS011;11412;50.802;4.350;2024-01-10T08:26:30;10.32;;;7.25;;
22490;SDS011;11412;50.802;4.350;2024-01-10T08:28:56;11.80;;;7.55;;
22490;SDS011;11412;50.802;4.350;2024-01-10T08:31:22;14.25;;;8.25;;
22490;SDS011;11412;50.802;4.350;2024-01-10T08:33:48;16.15;;;8.70;;
22490;SDS011;11412;50.802;4.350;2024-01-10T08:36:14;12.00;;;7.78;;
22490;SDS011;11412;50.802;4.350;2024-01-10T08:38:41;13.40;;;8.45;;
22490;SDS011;11412;50.802;4.350;2024-01-10T08:41:09;13.57;;;8.55;;
22490;SDS011;11412;50.802;4.350;2024-01-10T08:43:39;13.23;;;8.48;;
22490;SDS011;11412;50.802;4.350;2024-01-10T08:46:07;11.40;;;7.72;;
22490;SDS011;11412;50.802;4.350;2024-01-10T08:48:34;15.52;;;8.18;;
22490;SDS011;11412;50.802;4.350;2024-01-10T08:51:01;15.63;;;8.02;;
22490;SDS011;11412;50.802;4.350;2024-01-10T08:53:27;11.68;;;7.20;;
22490;SDS011;11412;50.802;4.350;2024-01-10T08:55:53;12.10;;;7.93;;
22490;SDS011;11412;50.802;4.350;2024-01-10T08:58:19;12.20;;;7.93;;
22490;SDS011;11412;50.802;4.350;2024-01-10T09:00:45;13.38;;;7.97;;
22490;SDS011;11412;50.802;4.350;2024-01-10T09:03:11;13.15;;;7.93;;
22490;SDS011;11412;50.802;4.350;2024-01-10T09:05:37;12.90;;;7.93;;
22490;SDS011;11412;50.802;4.350;2024-01-10T09:08:03;13.02;;;7.53;;
22490;SDS011;11412;50.802;4.350;2024-01-10T09:10:29;13.32;;;7.15;;
22490;SDS011;11412;50.802;4.350;2024-01-10T09:12:54;13.57;;;7.72;;
22490;SDS011;11412;50.802;4.350;2024-01-10T09:15:20;13.45;;;8.20;;
22490;SDS011;11412;50.802;4.350;2024-01-10T09:17:46;11.73;;;7.75;;
22490;SDS011;11412;50.802;4.350;2024-01-10T09:20:12;18.45;;;8.13;;
22490;SDS011;11412;50.802;4.350;2024-01-10T09:22:38;11.80;;;7.38;;
22490;SDS011;11412;50.802;4.350;2024-01-10T09:25:04;12.82;;;7.93;;
22490;SDS011;11412;50.802;4.350;2024-01-10T09:27:34;11.57;;;7.25;;
22490;SDS011;11412;50.802;4.350;2024-01-10T09:30:03;17.00;;;8.25;;
22490;SDS011;11412;50.802;4.350;2024-01-10T09:32:35;14.10;;;7.32;;
22490;SDS011;11412;50.802;4.350;2024-01-10T09:35:01;15.07;;;8.30;;
22490;SDS011;11412;50.802;4.350;2024-01-10T09:37:27;12.50;;;7.22;;
22490;SDS011;11412;50.802;4.350;2024-01-10T09:39:53;13.32;;;7.90;;
22490;SDS011;11412;50.802;4.350;2024-01-10T09:42:19;12.63;;;7.68;;
22490;SDS011;11412;50.802;4.350;2024-01-10T09:44:50;16.40;;;8.20;;
22490;SDS011;11412;50.802;4.350;2024-01-10T09:47:17;15.00;;;8.32;;
22490;SDS011;11412;50.802;4.350;2024-01-10T09:49:45;12.77;;;7.30;;
22490;SDS011;11412;50.802;4.350;2024-01-10T09:52:16;13.88;;;7.75;;
22490;SDS011;11412;50.802;4.350;2024-01-10T09:54:50;11.65;;;8.00;;
22490;SDS011;11412;50.802;4.350;2024-01-10T09:57:20;9.50;;;7.18;;
22490;SDS011;11412;50.802;4.350;2024-01-10T09:59:47;12.30;;;7.90;;
22490;SDS011;11412;50.802;4.350;2024-01-10T10:02:13;12.13;;;6.90;;
22490;SDS011;11412;50.802;4.350;2024-01-10T10:04:42;12.48;;;6.93;;
22490;SDS011;11412;50.802;4.350;2024-01-10T10:07:24;9.27;;;6.15;;
22490;SDS011;11412;50.802;4.350;2024-01-10T10:09:50;10.48;;;6.85;;
22490;SDS011;11412;50.802;4.350;2024-01-10T10:12:18;11.77;;;7.13;;
22490;SDS011;11412;50.802;4.350;2024-01-10T10:14:44;13.95;;;7.07;;
22490;SDS011;11412;50.802;4.350;2024-01-10T10:17:13;11.07;;;7.13;;
22490;SDS011;11412;50.802;4.350;2024-01-10T10:19:40;11.70;;;7.70;;
22490;SDS011;11412;50.802;4.350;2024-01-10T10:22:09;13.98;;;7.47;;
22490;SDS011;11412;50.802;4.350;2024-01-10T10:24:36;11.38;;;7.32;;
22490;SDS011;11412;50.802;4.350;2024-01-10T10:27:05;12.13;;;8.13;;
22490;SDS011;11412;50.802;4.350;2024-01-10T10:29:35;14.98;;;7.45;;
22490;SDS011;11412;50.802;4.350;2024-01-10T10:32:01;14.07;;;7.63;;
22490;SDS011;11412;50.802;4.350;2024-01-10T10:34:30;11.80;;;7.53;;
22490;SDS011;11412;50.802;4.350;2024-01-10T10:36:56;16.15;;;7.53;;
22490;SDS011;11412;50.802;4.350;2024-01-10T10:39:22;11.57;;;6.82;;
22490;SDS011;11412;50.802;4.350;2024-01-10T10:41:47;10.90;;;6.47;;
22490;SDS011;11412;50.802;4.350;2024-01-10T10:44:15;14.15;;;7.40;;
22490;SDS011;11412;50.802;4.350;2024-01-10T10:46:45;12.98;;;7.75;;
22490;SDS011;11412;50.802;4.350;2024-01-10T10:49:24;11.88;;;7.57;;
22490;SDS011;11412;50.802;4.350;2024-01-10T10:51:55;11.63;;;7.93;;
22490;SDS011;11412;50.802;4.350;2024-01-10T10:54:25;11.10;;;6.50;;
22490;SDS011;11412;50.802;4.350;2024-01-10T10:56:55;12.30;;;7.20;;
22490;SDS011;11412;50.802;4.350;2024-01-10T10:59:23;11.15;;;7.25;;
22490;SDS011;11412;50.802;4.350;2024-01-10T11:01:51;12.02;;;6.75;;
22490;SDS011;11412;50.802;4.350;2024-01-10T11:04:19;11.60;;;7.30;;
22490;SDS011;11412;50.802;4.350;2024-01-10T11:06:46;13.73;;;7.75;;
22490;SDS011;11412;50.802;4.350;2024-01-10T11:09:11;13.65;;;7.93;;
22490;SDS011;11412;50.802;4.350;2024-01-10T11:25:47;10.95;;;8.35;;
22490;SDS011;11412;50.802;4.350;2024-01-10T11:28:13;12.02;;;7.85;;
22490;SDS011;11412;50.802;4.350;2024-01-10T11:30:49;16.30;;;8.73;;
22490;SDS011;11412;50.802;4.350;2024-01-10T11:33:24;13.20;;;7.95;;
22490;SDS011;11412;50.802;4.350;2024-01-10T11:38:42;13.30;;;8.63;;
22490;SDS011;11412;50.802;4.350;2024-01-10T11:41:24;11.65;;;8.82;;
22490;SDS011;11412;50.802;4.350;2024-01-10T11:46:40;14.75;;;9.32;;
22490;SDS011;11412;50.802;4.350;2024-01-10T11:49:07;14.38;;;9.25;;
22490;SDS011;11412;50.802;4.350;2024-01-10T11:51:38;16.85;;;9.18;;
22490;SDS011;11412;50.802;4.350;2024-01-10T11:54:06;15.15;;;8.30;;
22490;SDS011;11412;50.802;4.350;2024-01-10T11:56:39;12.77;;;8.10;;
22490;SDS011;11412;50.802;4.350;2024-01-10T11:59:07;16.95;;;9.70;;
22490;SDS011;11412;50.802;4.350;2024-01-10T12:01:36;14.85;;;9.63;;
22490;SDS011;11412;50.802;4.350;2024-01-10T12:04:03;12.52;;;8.20;;
22490;SDS011;11412;50.802;4.350;2024-01-10T12:06:29;12.90;;;8.23;;
22490;SDS011;11412;50.802;4.350;2024-01-10T12:09:02;14.77;;;9.00;;
22490;SDS011;11412;50.802;4.350;2024-01-10T12:11:38;13.85;;;9.57;;
22490;SDS011;11412;50.802;4.350;2024-01-10T12:14:05;15.40;;;9.27;;
22490;SDS011;11412;50.802;4.350;2024-01-10T12:16:34;16.35;;;8.40;;
22490;SDS011;11412;50.802;4.350;2024-01-10T12:19:00;14.77;;;8.32;;
22490;SDS011;11412;50.802;4.350;2024-01-10T12:21:26;16.88;;;8.65;;
22490;SDS011;11412;50.802;4.350;2024-01-10T12:23:51;13.48;;;8.25;;
22490;SDS011;11412;50.802;4.350;2024-01-10T12:26:17;13.10;;;7.95;;
22490;SDS011;11412;50.802;4.350;2024-01-10T12:28:53;15.10;;;8.40;;
22490;SDS011;11412;50.802;4.350;2024-01-10T12:31:20;12.77;;;8.27;;
22490;SDS011;11412;50.802;4.350;2024-01-10T12:33:48;13.73;;;8.05;;
22490;SDS011;11412;50.802;4.350;2024-01-10T12:36:14;15.43;;;8.55;;
22490;SDS011;11412;50.802;4.350;2024-01-10T12:38:42;12.82;;;8.60;;
22490;SDS011;11412;50.802;4.350;2024-01-10T12:41:09;16.08;;;8.57;;
22490;SDS011;11412;50.802;4.350;2024-01-10T12:43:36;13.73;;;8.85;;
22490;SDS011;11412;50.802;4.350;2024-01-10T12:46:11;14.40;;;8.88;;
22490;SDS011;11412;50.802;4.350;2024-01-10T12:48:38;16.52;;;9.27;;
22490;SDS011;11412;50.802;4.350;2024-01-10T12:51:06;13.60;;;8.50;;
22490;SDS011;11412;50.802;4.350;2024-01-10T12:53:42;15.35;;;8.32;;
22490;SDS011;11412;50.802;4.350;2024-01-10T12:56:09;15.50;;;8.57;;
22490;SDS011;11412;50.802;4.350;2024-01-10T12:58:39;14.98;;;8.65;;
22490;SDS011;11412;50.802;4.350;2024-01-10T13:01:07;15.05;;;8.95;;
22490;SDS011;11412;50.802;4.350;2024-01-10T13:03:34;13.40;;;8.68;;
22490;SDS011;11412;50.802;4.350;2024-01-10T13:05:59;15.57;;;8.88;;
22490;SDS011;11412;50.802;4.350;2024-01-10T13:08:25;17.60;;;8.90;;
22490;SDS011;11412;50.802;4.350;2024-01-10T13:10:51;12.20;;;7.65;;
22490;SDS011;11412;50.802;4.350;2024-01-10T13:13:16;12.68;;;8.05;;
22490;SDS011;11412;50.802;4.350;2024-01-10T13:15:45;16.15;;;8.13;;
22490;SDS011;11412;50.802;4.350;2024-01-10T13:18:11;18.88;;;8.85;;
22490;SDS011;11412;50.802;4.350;2024-01-10T13:20:37;17.13;;;8.30;;
22490;SDS011;11412;50.802;4.350;2024-01-10T13:23:05;13.23;;;7.97;;
22490;SDS011;11412;50.802;4.350;2024-01-10T13:25:31;14.45;;;8.85;;
22490;SDS011;11412;50.802;4.350;2024-01-10T13:27:57;11.77;;;7.93;;
22490;SDS011;11412;50.802;4.350;2024-01-10T13:30:22;13.13;;;8.35;;
22490;SDS011;11412;50.802;4.350;2024-01-10T13:32:48;14.88;;;8.32;;
22490;SDS011;11412;50.802;4.350;2024-01-10T13:35:14;14.85;;;8.05;;
22490;SDS011;11412;50.802;4.350;2024-01-10T13:37:41;16.50;;;8.18;;
22490;SDS011;11412;50.802;4.350;2024-01-10T13:40:07;12.05;;;7.80;;
22490;SDS011;11412;50.802;4.350;2024-01-10T13:42:37;13.73;;;8.02;;
22490;SDS011;11412;50.802;4.350;2024-01-10T13:45:04;15.18;;;7.95;;
22490;SDS011;11412;50.802;4.350;2024-01-10T13:47:31;11.25;;;7.72;;
22490;SDS011;11412;50.802;4.350;2024-01-10T13:49:58;12.95;;;8.00;;
22490;SDS011;11412;50.802;4.350;2024-01-10T13:52:24;13.20;;;8.48;;
22490;SDS011;11412;50.802;4.350;2024-01-10T13:54:50;12.32;;;8.38;;
22490;SDS011;11412;50.802;4.350;2024-01-10T13:57:17;12.77;;;7.90;;
22490;SDS011;11412;50.802;4.350;2024-01-10T13:59:43;12.82;;;8.05;;
22490;SDS011;11412;50.802;4.350;2024-01-10T14:02:09;10.98;;;8.25;;
22490;SDS011;11412;50.802;4.350;2024-01-10T14:04:35;15.27;;;9.10;;
22490;SDS011;11412;50.802;4.350;2024-01-10T14:07:01;13.30;;;8.20;;
22490;SDS011;11412;50.802;4.350;2024-01-10T14:09:28;13.77;;;8.30;;
22490;SDS011;11412;50.802;4.350;2024-01-10T14:11:55;13.75;;;9.05;;
22490;SDS011;11412;50.802;4.350;2024-01-10T14:14:20;14.85;;;8.13;;
22490;SDS011;11412;50.802;4.350;2024-01-10T14:16:46;13.43;;;8.13;;
22490;SDS011;11412;50.802;4.350;2024-01-10T14:19:11;16.08;;;8.13;;
22490;SDS011;11412;50.802;4.350;2024-01-10T14:21:37;16.15;;;9.02;;
22490;SDS011;11412;50.802;4.350;2024-01-10T14:24:03;13.25;;;8.23;;
22490;SDS011;11412;50.802;4.350;2024-01-10T14:26:29;13.77;;;8.63;;
22490;SDS011;11412;50.802;4.350;2024-01-10T14:28:55;16.58;;;8.73;;
22490;SDS011;11412;50.802;4.350;2024-01-10T14:31:22;17.30;;;9.40;;
22490;SDS011;11412;50.802;4.350;2024-01-10T14:33:47;18.58;;;9.45;;
22490;SDS011;11412;50.802;4.350;2024-01-10T14:36:13;13.90;;;8.95;;
22490;SDS011;11412;50.802;4.350;2024-01-10T14:38:40;14.82;;;9.52;;
22490;SDS011;11412;50.802;4.350;2024-01-10T14:41:08;15.02;;;9.32;;
22490;SDS011;11412;50.802;4.350;2024-01-10T14:43:35;17.15;;;10.13;;
22490;SDS011;11412;50.802;4.350;2024-01-10T14:46:01;13.82;;;9.20;;
22490;SDS011;11412;50.802;4.350;2024-01-10T14:48:28;17.58;;;9.68;;
22490;SDS011;11412;50.802;4.350;2024-01-10T14:50:53;16.85;;;9.48;;
22490;SDS011;11412;50.802;4.350;2024-01-10T14:53:19;14.07;;;9.10;;
22490;SDS011;11412;50.802;4.350;2024-01-10T14:55:44;16.38;;;10.05;;